Alloy, WV

2:18 AM EDT on July 29, 2014 (GMT -0400)
KWVGLENF2 Elev 676 ft | 38.15 °N, 81.22 °W | Change Station

Current weather conditions updated 17 minutes ago

Mostly Cloudy
Mostly Cloudy
62.9 °F
Feels Like 62.9 °F
N
0.0
Wind Variable Wind from West
Gusts 0.0 mph

Today is forecast to be nearly the same temperature as yesterday. Chance of afternoon showers.

Today
High -- | Low -- °F
--% Chance of Precip.
Yesterday
High -- | Low -- °F
Precip. -- in
6:25 AM 8:37 PM
Waxing Crescent, 5% visible
Pressure 29.94 in
Visibility 6.0 miles
Clouds Few 6500 ft
Mostly Cloudy 8500 ft
Dew Point 62 °F
Humidity 95%
Rainfall 0.00 in
Snow Depth Not available.
UV 0 out of 12
Pollen 4.10 out of 12
Air Quality Not available.
Flu Activity Not available.
METAR KCRW 290554Z 00000KT 6SM BR FEW065 BKN085 17/17 A2995 RMK AO2 SLP136 VLY FG 60000 T01720172 10200 20172 55002 $

More Conditions Fewer Conditions

Pressure 29.94 in
Visibility 6.0 miles
Clouds Few 6500 ft
Mostly Cloudy 8500 ft
Dew Point 62 °F
Humidity 95%
Rainfall 0.00 in
Snow Depth Not available.
UV 0 out of 12
Pollen 4.10 out of 12
Air Quality Not available.
Flu Activity Not available.
METAR KCRW 290554Z 00000KT 6SM BR FEW065 BKN085 17/17 A2995 RMK AO2 SLP136 VLY FG 60000 T01720172 10200 20172 55002 $

More Conditions Fewer Conditions

10-Day Weather Forecast

Almanac

Astronomy

Jul. 29, 2014 Rise Set
Actual Time 6:25 AM EDT 8:37 PM EDT
Civil Twilight 5:55 AM EDT 9:07 PM EDT
Nautical Twilight 5:19 AM EDT 9:43 PM EDT
Astronomical Twilight 4:39 AM EDT 10:22 PM EDT
Moon 8:57 AM EDT 9:52 PM EDT
Length of Visible Light 15h 11m
Length of Day
14h 12m
Tomorrow will be 1m 47s shorter.
Waxing Crescent, 5% of the Moon is Illuminated
Today
Waxing Crescent
Aug 3
First Quarter
Aug 10
Full
Aug 17
Last Quarter
Aug 25
New

Today's Extremes

State Highs State Lows

Community

WunderPhotos

Upload Photos

1,738,642 photos uploaded!

Nearby

Snow Depth

Station Depth Elevation
No new snow has been reported.

Earthquake Activity

City Distance Mag. Time & Date
No recent earthquake activity has been reported nearby.
Minimum magnitude displayed is 2.5.

Coastal Water Temperatures

Place Temperature
No Stations Reporting

Nearby Weather Stations

Station Location Temp. Dew Point Humidity Wind Precip. Elev Updated Type
Glen Ferris, WV 62.9 °F 62 °F 95% West  at  0.0 mph 0.00 in / hr 676 ft 2:01 AM EDT Normal
., Gauley Bridge, WV 62.2 °F 61 °F 96% East  at  0.0 mph 0.02 in / hr 804 ft 2:14 AM EDT Normal
Joes Creek, Comfort, WV 61.9 °F 61 °F 97% ENE  at  0.0 mph 0.00 in / hr 784 ft 2:16 AM EDT Rapid Fire
APRSWXNET Comfort WV , Bloomingrose, WV 62 °F 61 °F 97% SW  at  0 mph 0.00 in / hr 692 ft 1:47 AM EDT MADIS
Coopers Creek Road, Charleston, WV 61.9 °F 61 °F 95% NW  at  0.0 mph 0.00 in / hr 696 ft 2:03 AM EDT Normal
F.I.T. - Oyler Ave., Oak Hill, WV 59.3 °F 58 °F 97% WNW  at  0.0 mph 0.00 in / hr 1988 ft 2:17 AM EDT Rapid Fire

Show More Stations Show Fewer Stations